Time;durP1;ratioP1;P1;durP2;ratioP2;P2;SDS_P1;SDS_P2;PMS_P1;PMS_P2;Temp;Humidity;BMP_temperature;BMP_pressure;BME280_temperature;BME280_humidity;BME280_pressure;Samples;Min_cycle;Max_cycle;Signal;HPM_P1;HPM_P2
2023/07/18 00:01:40;;;;;;;3.55;1.40;;;23.10;64.30;;;;;;5014774;28;20056;-60
2023/07/18 00:04:07;;;;;;;2.88;1.10;;;23.10;64.20;;;;;;5012818;28;20049;-60
2023/07/18 00:06:32;;;;;;;2.40;1.13;;;23.10;64.20;;;;;;5014374;28;20045;-60
2023/07/18 00:08:58;;;;;;;3.58;1.30;;;23.10;64.20;;;;;;5014256;28;20446;-60
2023/07/18 00:11:24;;;;;;;4.13;1.42;;;23.10;64.20;;;;;;5013788;28;20104;-60
2023/07/18 00:13:49;;;;;;;2.55;1.30;;;23.10;64.20;;;;;;5029607;28;20124;-60
2023/07/18 00:16:15;;;;;;;2.75;1.38;;;23.00;64.10;;;;;;5034392;28;20045;-60
2023/07/18 00:18:41;;;;;;;4.65;1.50;;;23.10;64.20;;;;;;5031857;28;20076;-60
2023/07/18 00:21:07;;;;;;;2.33;1.23;;;23.10;64.20;;;;;;5034886;28;20048;-60
2023/07/18 00:23:33;;;;;;;2.65;1.48;;;23.10;64.20;;;;;;5031510;28;20382;-60
2023/07/18 00:25:59;;;;;;;2.97;1.50;;;23.10;64.20;;;;;;5023172;28;20041;-60
2023/07/18 00:28:25;;;;;;;2.30;1.13;;;23.00;64.10;;;;;;5014125;28;20056;-60
2023/07/18 00:30:51;;;;;;;3.15;1.30;;;23.00;64.10;;;;;;5013397;28;20191;-60
2023/07/18 00:33:16;;;;;;;3.30;1.45;;;23.00;64.20;;;;;;5012502;28;20041;-60
2023/07/18 00:35:43;;;;;;;2.90;1.33;;;23.00;64.70;;;;;;5013380;28;20390;-60
2023/07/18 00:38:11;;;;;;;2.75;1.17;;;23.00;64.10;;;;;;5022570;28;20049;-60
2023/07/18 00:40:40;;;;;;;2.35;1.20;;;23.00;64.10;;;;;;5031270;28;20053;-60
2023/07/18 00:43:12;;;;;;;3.38;1.23;;;23.00;64.10;;;;;;5033071;28;20064;-60
2023/07/18 00:45:38;;;;;;;3.03;1.30;;;23.00;64.10;;;;;;5030991;28;20060;-60
2023/07/18 00:48:04;;;;;;;2.70;1.30;;;23.00;64.10;;;;;;5015687;28;20112;-60
2023/07/18 00:50:29;;;;;;;3.17;1.58;;;23.00;64.10;;;;;;5032253;28;20037;-60
2023/07/18 00:52:55;;;;;;;3.65;1.45;;;23.00;64.10;;;;;;5032978;28;20045;-60
2023/07/18 00:55:20;;;;;;;4.20;1.33;;;23.00;64.10;;;;;;5032637;28;20060;-60
2023/07/18 00:57:47;;;;;;;3.70;1.45;;;22.90;64.10;;;;;;5032540;28;20049;-60
2023/07/18 01:00:13;;;;;;;2.55;1.13;;;23.00;64.10;;;;;;5032625;28;20065;-60
2023/07/18 01:02:44;;;;;;;2.85;1.27;;;23.00;64.10;;;;;;5032085;28;20509;-60
2023/07/18 01:05:10;;;;;;;2.13;1.20;;;23.00;64.10;;;;;;5032823;28;20133;-60
2023/07/18 01:07:37;;;;;;;3.13;1.30;;;22.90;64.00;;;;;;5032084;28;20049;-60
2023/07/18 01:10:16;;;;;;;2.75;1.30;;;23.00;64.10;;;;;;5033017;28;20072;-60
2023/07/18 01:12:42;;;;;;;2.55;1.40;;;23.00;64.10;;;;;;5030910;28;20033;-60
2023/07/18 01:15:12;;;;;;;3.63;1.48;;;22.90;64.10;;;;;;5032276;28;20038;-60
2023/07/18 01:17:45;;;;;;;2.88;1.30;;;22.90;64.00;;;;;;5032862;28;20048;-60
2023/07/18 01:20:14;;;;;;;2.95;1.10;;;22.90;64.10;;;;;;5033608;28;20117;-60
2023/07/18 01:22:40;;;;;;;2.20;0.95;;;22.90;64.00;;;;;;5031957;28;20124;-60
2023/07/18 01:25:05;;;;;;;3.08;1.40;;;22.90;64.00;;;;;;5033624;28;20128;-60
2023/07/18 01:27:31;;;;;;;2.80;1.25;;;22.90;64.10;;;;;;5032120;28;20145;-60
2023/07/18 01:29:57;;;;;;;3.10;1.23;;;22.90;64.10;;;;;;5031766;28;20124;-60
2023/07/18 01:32:22;;;;;;;2.67;1.20;;;22.90;64.00;;;;;;5033065;28;20041;-61
2023/07/18 01:34:48;;;;;;;3.50;1.30;;;22.90;64.10;;;;;;5031768;28;20056;-60
2023/07/18 01:37:15;;;;;;;3.78;1.23;;;22.90;64.00;;;;;;5032372;28;20049;-60
2023/07/18 01:39:41;;;;;;;2.75;1.40;;;22.90;64.00;;;;;;5031826;28;20053;-61
2023/07/18 01:42:06;;;;;;;2.17;1.00;;;22.90;64.00;;;;;;5031461;28;20065;-60
2023/07/18 01:44:33;;;;;;;2.95;1.17;;;22.90;64.00;;;;;;5029838;28;20074;-60
2023/07/18 01:46:59;;;;;;;3.65;1.13;;;22.90;64.00;;;;;;5032469;28;20053;-60
2023/07/18 01:49:25;;;;;;;2.92;1.27;;;22.80;64.00;;;;;;5029738;28;20045;-60
2023/07/18 01:51:50;;;;;;;4.15;0.98;;;22.80;64.00;;;;;;5032642;28;20049;-60
2023/07/18 01:54:16;;;;;;;2.75;1.20;;;22.80;63.90;;;;;;5031609;28;20045;-60
2023/07/18 01:56:41;;;;;;;2.90;1.50;;;22.80;64.00;;;;;;5030948;28;20049;-60
2023/07/18 01:59:07;;;;;;;2.63;1.30;;;22.80;64.00;;;;;;5032552;28;20041;-60
2023/07/18 02:01:33;;;;;;;2.30;1.30;;;22.80;64.00;;;;;;5031859;28;20037;-60
2023/07/18 02:03:59;;;;;;;3.10;1.42;;;22.80;64.00;;;;;;5019500;28;20048;-60
2023/07/18 02:06:25;;;;;;;2.58;1.00;;;22.80;64.00;;;;;;5011759;28;20041;-60
2023/07/18 02:08:51;;;;;;;2.45;1.00;;;22.80;64.00;;;;;;5012008;28;20114;-60
2023/07/18 02:11:17;;;;;;;2.08;0.93;;;22.80;64.00;;;;;;5012381;28;20050;-60
2023/07/18 02:13:43;;;;;;;2.25;1.00;;;22.80;64.00;;;;;;5011937;28;20148;-60
2023/07/18 02:16:08;;;;;;;2.88;1.40;;;22.80;64.00;;;;;;5012767;28;20512;-60
2023/07/18 02:18:34;;;;;;;3.10;1.25;;;22.80;64.00;;;;;;5017818;28;20381;-60
2023/07/18 02:20:59;;;;;;;2.55;1.17;;;22.80;64.00;;;;;;5031762;28;20038;-60
2023/07/18 02:23:25;;;;;;;3.13;1.23;;;22.80;64.00;;;;;;5031405;28;20041;-59
2023/07/18 02:25:51;;;;;;;1.90;1.00;;;22.80;64.00;;;;;;5030945;28;20057;-59
2023/07/18 02:28:16;;;;;;;2.65;1.17;;;22.80;63.90;;;;;;5030034;28;20041;-59
2023/07/18 02:30:42;;;;;;;2.80;1.13;;;22.80;63.90;;;;;;5031033;28;20116;-59
2023/07/18 02:33:08;;;;;;;2.10;1.02;;;22.80;63.90;;;;;;5030613;28;20041;-60
2023/07/18 02:35:33;;;;;;;2.60;1.25;;;22.80;63.90;;;;;;5031347;28;20378;-60
2023/07/18 02:37:59;;;;;;;3.05;1.48;;;22.80;64.00;;;;;;5030333;28;20041;-60
2023/07/18 02:40:24;;;;;;;2.95;1.52;;;22.80;63.90;;;;;;5030887;28;20045;-60
2023/07/18 02:42:50;;;;;;;2.95;1.00;;;22.80;63.90;;;;;;5030299;28;20131;-60
2023/07/18 02:45:15;;;;;;;2.40;1.23;;;22.80;64.00;;;;;;5030903;28;20053;-60
2023/07/18 02:47:41;;;;;;;3.40;1.33;;;22.70;63.80;;;;;;5031763;28;20084;-60
2023/07/18 02:50:07;;;;;;;2.55;1.13;;;22.70;63.90;;;;;;5032225;28;20128;-60
2023/07/18 02:52:33;;;;;;;2.95;1.20;;;22.70;63.80;;;;;;5029635;28;20076;-59
2023/07/18 02:54:59;;;;;;;3.83;1.27;;;22.70;63.80;;;;;;5029680;28;20097;-60
2023/07/18 02:57:24;;;;;;;3.25;1.23;;;22.70;63.80;;;;;;5032318;28;20038;-60
2023/07/18 02:59:50;;;;;;;3.53;1.30;;;22.70;63.80;;;;;;5029491;28;20048;-60
2023/07/18 03:02:16;;;;;;;2.35;1.10;;;22.70;63.80;;;;;;5030238;28;20050;-60
2023/07/18 03:04:42;;;;;;;2.92;1.20;;;22.70;63.80;;;;;;5030409;28;20444;-60
2023/07/18 03:07:07;;;;;;;3.67;1.10;;;22.70;63.80;;;;;;5030614;28;20049;-59
2023/07/18 03:09:34;;;;;;;2.58;1.00;;;22.70;63.90;;;;;;5030933;28;20055;-60
2023/07/18 03:12:00;;;;;;;2.58;1.10;;;22.70;63.80;;;;;;5032208;28;20124;-60
2023/07/18 03:14:25;;;;;;;2.50;1.30;;;22.70;63.80;;;;;;5030913;28;20453;-59
2023/07/18 03:16:51;;;;;;;2.53;1.17;;;22.70;63.90;;;;;;5031592;28;20107;-60
2023/07/18 03:19:16;;;;;;;2.67;1.20;;;22.60;63.80;;;;;;5031541;28;20072;-59
2023/07/18 03:21:43;;;;;;;2.33;1.00;;;22.70;63.80;;;;;;5030792;28;20416;-60
2023/07/18 03:24:09;;;;;;;3.15;0.88;;;22.70;63.80;;;;;;5031306;28;20047;-59
2023/07/18 03:26:37;;;;;;;2.40;1.15;;;22.70;63.90;;;;;;5031121;28;20428;-59
2023/07/18 03:29:05;;;;;;;1.55;0.82;;;22.70;63.80;;;;;;5028689;28;20115;-59
2023/07/18 03:31:30;;;;;;;3.08;1.02;;;22.70;63.90;;;;;;5030582;28;20048;-59
2023/07/18 03:33:56;;;;;;;2.28;1.10;;;22.60;63.80;;;;;;5030848;28;20041;-59
2023/07/18 03:36:21;;;;;;;1.83;0.90;;;22.60;63.80;;;;;;5032134;28;20090;-60
2023/07/18 03:38:47;;;;;;;1.80;0.90;;;22.60;63.80;;;;;;5034238;28;20037;-60
2023/07/18 03:41:13;;;;;;;2.33;1.17;;;22.60;63.80;;;;;;5033783;28;20045;-59
2023/07/18 03:43:38;;;;;;;3.20;1.20;;;22.60;63.80;;;;;;5033948;28;20099;-60
2023/07/18 03:46:04;;;;;;;2.83;1.10;;;22.60;63.80;;;;;;5034102;28;20038;-60
2023/07/18 03:48:29;;;;;;;2.85;1.17;;;22.60;63.80;;;;;;5032935;28;20715;-59
2023/07/18 03:50:55;;;;;;;1.95;1.05;;;22.60;63.80;;;;;;5035178;28;20485;-60
2023/07/18 03:53:20;;;;;;;2.85;1.10;;;22.60;64.40;;;;;;5035275;28;20069;-60
2023/07/18 03:55:46;;;;;;;2.30;1.17;;;22.60;63.80;;;;;;5032391;28;20064;-60
2023/07/18 03:58:12;;;;;;;2.80;1.20;;;22.60;63.80;;;;;;5035273;28;20045;-60
2023/07/18 04:00:37;;;;;;;2.67;1.00;;;22.60;63.80;;;;;;5031034;28;20059;-60
2023/07/18 04:03:03;;;;;;;3.15;1.20;;;22.60;63.80;;;;;;5022868;28;20037;-59
2023/07/18 04:05:29;;;;;;;2.88;1.10;;;22.60;63.90;;;;;;5032613;28;20059;-60
2023/07/18 04:07:55;;;;;;;2.85;1.00;;;22.60;63.80;;;;;;5033424;28;20493;-60
2023/07/18 04:10:20;;;;;;;3.17;1.20;;;22.60;63.80;;;;;;5031386;28;20100;-60
2023/07/18 04:12:46;;;;;;;3.85;0.93;;;22.60;63.80;;;;;;5033657;28;20041;-60
2023/07/18 04:15:12;;;;;;;2.40;1.15;;;22.60;63.80;;;;;;5033844;28;20052;-60
2023/07/18 04:17:38;;;;;;;3.90;1.38;;;22.60;63.80;;;;;;5031379;28;20053;-60
2023/07/18 04:20:05;;;;;;;2.53;0.98;;;22.60;63.80;;;;;;5034325;28;20547;-60
2023/07/18 04:22:30;;;;;;;2.15;0.85;;;22.60;63.80;;;;;;5032303;28;20053;-60
2023/07/18 04:24:56;;;;;;;2.88;1.30;;;22.60;63.80;;;;;;5033241;28;20046;-60
2023/07/18 04:27:22;;;;;;;1.95;1.13;;;22.60;63.80;;;;;;5033981;28;20576;-60
2023/07/18 04:29:48;;;;;;;2.50;1.00;;;22.60;63.80;;;;;;5033215;28;20382;-60
2023/07/18 04:32:14;;;;;;;2.70;1.10;;;22.60;63.80;;;;;;5031933;28;20096;-60
2023/07/18 04:34:39;;;;;;;2.90;0.98;;;22.50;63.70;;;;;;5032097;28;20045;-60
2023/07/18 04:37:05;;;;;;;2.85;1.27;;;22.50;63.80;;;;;;5033401;28;20045;-60
2023/07/18 04:39:31;;;;;;;2.28;0.90;;;22.50;63.70;;;;;;5032287;28;20034;-60
2023/07/18 04:41:56;;;;;;;1.90;1.00;;;22.60;63.80;;;;;;5033901;28;20529;-60
2023/07/18 04:44:25;;;;;;;2.67;1.00;;;22.50;63.70;;;;;;5033738;28;20086;-60
2023/07/18 04:46:52;;;;;;;2.28;1.15;;;22.50;63.80;;;;;;5032030;28;20044;-60
2023/07/18 04:49:18;;;;;;;2.95;1.20;;;22.50;63.80;;;;;;5033720;28;20049;-60
2023/07/18 04:51:44;;;;;;;1.58;0.68;;;22.50;63.90;;;;;;5033088;28;20056;-60
2023/07/18 04:54:10;;;;;;;3.03;0.85;;;22.60;64.00;;;;;;5033104;28;20037;-60
2023/07/18 04:56:35;;;;;;;2.70;1.10;;;22.60;64.00;;;;;;5033275;28;20091;-60
2023/07/18 04:59:01;;;;;;;2.95;1.00;;;22.60;64.00;;;;;;5025893;28;20034;-60
2023/07/18 05:01:28;;;;;;;2.75;0.93;;;22.60;64.10;;;;;;5033797;28;20049;-60
2023/07/18 05:03:54;;;;;;;2.13;1.00;;;22.60;64.10;;;;;;5033631;28;20041;-60
2023/07/18 05:06:20;;;;;;;1.73;0.90;;;22.60;64.20;;;;;;5032493;28;20056;-60
2023/07/18 05:08:45;;;;;;;1.77;0.95;;;22.50;64.10;;;;;;5032756;28;20477;-60
2023/07/18 05:11:11;;;;;;;2.15;1.00;;;22.60;64.20;;;;;;5033223;28;20084;-60
2023/07/18 05:13:37;;;;;;;1.95;0.80;;;22.60;64.20;;;;;;5015997;28;20056;-59
2023/07/18 05:16:02;;;;;;;2.65;1.15;;;22.60;64.10;;;;;;5029933;28;20045;-60
2023/07/18 05:18:29;;;;;;;2.63;0.98;;;22.60;64.10;;;;;;5033598;28;20473;-60
2023/07/18 05:20:56;;;;;;;2.22;1.17;;;22.60;64.10;;;;;;5032185;28;20046;-60
2023/07/18 05:23:21;;;;;;;1.38;0.88;;;22.60;64.10;;;;;;5032540;28;20037;-60
2023/07/18 05:25:47;;;;;;;2.33;1.00;;;22.60;64.20;;;;;;5032206;28;20053;-60
2023/07/18 05:28:13;;;;;;;2.10;0.93;;;22.60;64.30;;;;;;5031093;28;20079;-60
2023/07/18 05:30:39;;;;;;;2.47;1.00;;;22.60;64.30;;;;;;5031396;28;20098;-59
2023/07/18 05:33:04;;;;;;;3.08;1.00;;;22.60;64.30;;;;;;5032313;28;20042;-60
2023/07/18 05:35:30;;;;;;;2.35;1.05;;;22.60;64.20;;;;;;5031380;28;20044;-60
2023/07/18 05:37:56;;;;;;;2.17;0.80;;;22.60;64.20;;;;;;5031028;28;20124;-59
2023/07/18 05:40:22;;;;;;;2.20;0.70;;;22.60;64.20;;;;;;5032136;28;20481;-60
2023/07/18 05:42:47;;;;;;;3.17;0.90;;;22.60;64.90;;;;;;5031382;28;20079;-59
2023/07/18 05:45:13;;;;;;;3.13;1.13;;;22.60;64.30;;;;;;5032086;28;20045;-59
2023/07/18 05:47:39;;;;;;;3.58;1.10;;;22.60;64.30;;;;;;5031617;28;20307;-60
2023/07/18 05:50:05;;;;;;;2.17;1.00;;;22.60;64.30;;;;;;5032237;28;20119;-60
2023/07/18 05:52:31;;;;;;;3.22;1.08;;;22.60;64.40;;;;;;5032171;28;20481;-59
2023/07/18 05:54:56;;;;;;;2.03;1.00;;;22.60;64.40;;;;;;5031400;28;20057;-60
2023/07/18 05:57:22;;;;;;;3.42;0.82;;;22.60;64.40;;;;;;5030716;28;20049;-59
2023/07/18 05:59:48;;;;;;;1.30;0.80;;;22.60;64.50;;;;;;5032244;28;20404;-59
2023/07/18 06:02:14;;;;;;;3.05;0.88;;;22.60;64.60;;;;;;5030803;28;20046;-60
2023/07/18 06:04:40;;;;;;;2.45;0.90;;;22.60;64.50;;;;;;5030284;28;20124;-59
2023/07/18 06:07:06;;;;;;;2.70;1.02;;;22.60;64.50;;;;;;5031148;28;20132;-60
2023/07/18 06:09:31;;;;;;;1.83;0.80;;;22.60;64.50;;;;;;5030665;28;20171;-60
2023/07/18 06:11:57;;;;;;;2.67;0.90;;;22.60;64.50;;;;;;5031945;28;20128;-60
2023/07/18 06:14:23;;;;;;;2.38;1.00;;;22.60;64.50;;;;;;5031788;28;20596;-59
2023/07/18 06:16:48;;;;;;;2.05;0.80;;;22.60;64.50;;;;;;5030530;28;20041;-59
2023/07/18 06:19:14;;;;;;;2.58;0.88;;;22.60;64.40;;;;;;5031479;28;20041;-59
2023/07/18 06:21:40;;;;;;;2.90;1.00;;;22.60;64.40;;;;;;5031042;28;20045;-60
2023/07/18 06:24:06;;;;;;;3.35;0.90;;;22.60;64.50;;;;;;5031394;28;20503;-59
2023/07/18 06:26:32;;;;;;;2.88;0.80;;;22.60;64.50;;;;;;5031521;28;20049;-59
2023/07/18 06:28:57;;;;;;;1.27;0.77;;;22.70;64.60;;;;;;5024009;28;20037;-61
2023/07/18 06:31:23;;;;;;;2.67;1.00;;;22.70;64.60;;;;;;5012013;28;20053;-60
2023/07/18 06:33:49;;;;;;;2.40;0.88;;;22.70;64.50;;;;;;5012438;28;20121;-60
2023/07/18 06:36:15;;;;;;;1.95;0.93;;;22.70;64.50;;;;;;5026661;28;20041;-60
2023/07/18 06:38:41;;;;;;;2.45;1.08;;;22.70;64.40;;;;;;5030434;28;20044;-60
2023/07/18 06:41:07;;;;;;;5.18;1.10;;;22.70;64.40;;;;;;5029737;28;20049;-60
2023/07/18 06:43:32;;;;;;;3.00;0.90;;;22.70;64.40;;;;;;5031164;28;20041;-60
2023/07/18 06:45:58;;;;;;;2.60;0.90;;;22.80;64.50;;;;;;5029226;28;20103;-60
2023/07/18 06:48:24;;;;;;;6.22;1.10;;;22.80;64.60;;;;;;5031712;28;20477;-59
2023/07/18 06:50:51;;;;;;;4.40;1.08;;;22.80;64.60;;;;;;5030772;28;20473;-59
2023/07/18 06:53:18;;;;;;;4.32;0.90;;;22.80;64.60;;;;;;5030339;28;20124;-60
2023/07/18 06:55:44;;;;;;;2.85;1.00;;;22.80;64.60;;;;;;5030482;28;20107;-60
2023/07/18 06:58:10;;;;;;;3.30;1.30;;;22.80;64.60;;;;;;5030432;28;20041;-60
2023/07/18 07:00:36;;;;;;;3.95;0.90;;;22.80;64.60;;;;;;5027886;28;20091;-59
2023/07/18 07:03:02;;;;;;;3.67;1.35;;;22.80;64.60;;;;;;5030584;28;20045;-59
2023/07/18 07:05:38;;;;;;;3.35;1.02;;;22.80;64.60;;;;;;5023514;28;20050;-58
2023/07/18 07:08:08;;;;;;;3.40;1.10;;;22.80;64.70;;;;;;5029874;28;20494;-60
2023/07/18 07:10:34;;;;;;;4.28;1.00;;;22.80;64.80;;;;;;5026320;28;20546;-60
2023/07/18 07:13:00;;;;;;;4.22;1.00;;;22.80;64.90;;;;;;5014773;28;20042;-61
2023/07/18 07:15:25;;;;;;;3.45;1.05;;;22.90;65.00;;;;;;5015596;28;20042;-60
2023/07/18 07:17:51;;;;;;;2.65;0.93;;;22.90;65.00;;;;;;5016010;28;20433;-60
2023/07/18 07:20:19;;;;;;;2.75;0.90;;;22.90;65.10;;;;;;5019221;28;20045;-59
2023/07/18 07:22:47;;;;;;;7.50;1.00;;;22.90;65.10;;;;;;5034934;28;20485;-60
2023/07/18 07:25:14;;;;;;;;;;;22.90;65.10;;;;;;5034728;28;20436;-60
2023/07/18 07:27:44;;;;;;;4.93;1.00;;;22.80;65.00;;;;;;5033364;28;20380;-60
2023/07/18 07:30:10;;;;;;;4.72;0.93;;;22.90;65.20;;;;;;5034726;28;20129;-60
2023/07/18 07:32:35;;;;;;;2.95;1.17;;;22.90;65.20;;;;;;5033622;28;20098;-60
2023/07/18 07:35:01;;;;;;;3.92;1.00;;;22.90;65.30;;;;;;5032582;28;20049;-60
2023/07/18 07:37:27;;;;;;;2.17;0.82;;;22.90;65.30;;;;;;5014262;28;20049;-60
2023/07/18 07:39:53;;;;;;;3.17;1.00;;;22.90;65.40;;;;;;5013293;28;20065;-60
2023/07/18 07:42:18;;;;;;;2.25;0.88;;;22.90;65.40;;;;;;5034345;28;20049;-60
2023/07/18 07:44:45;;;;;;;5.82;0.88;;;22.90;65.40;;;;;;5034269;28;20041;-60
2023/07/18 07:47:10;;;;;;;2.95;1.00;;;22.90;65.40;;;;;;5033046;28;20049;-60
2023/07/18 07:49:36;;;;;;;3.78;1.00;;;23.00;65.50;;;;;;5032573;28;20090;-60
2023/07/18 07:52:02;;;;;;;3.35;0.90;;;23.00;65.50;;;;;;5034871;28;20046;-59
2023/07/18 07:54:27;;;;;;;1.42;0.77;;;23.00;65.50;;;;;;5033757;28;20184;-60
2023/07/18 07:56:53;;;;;;;2.60;0.82;;;23.00;65.50;;;;;;5033533;28;20053;-60
2023/07/18 07:59:19;;;;;;;4.25;1.13;;;23.00;65.60;;;;;;5034087;28;20546;-60
2023/07/18 08:01:45;;;;;;;5.97;1.02;;;23.00;65.60;;;;;;5032680;28;20050;-60
2023/07/18 08:04:11;;;;;;;2.33;0.93;;;23.00;65.60;;;;;;5033460;28;20038;-60
2023/07/18 08:06:36;;;;;;;3.20;1.00;;;23.00;65.70;;;;;;5034306;28;20037;-60
2023/07/18 08:09:02;;;;;;;3.30;1.00;;;23.00;65.70;;;;;;5033770;28;20064;-60
2023/07/18 08:11:28;;;;;;;2.10;0.98;;;23.00;65.70;;;;;;5034464;28;20046;-59
2023/07/18 08:13:54;;;;;;;3.67;1.00;;;23.00;65.80;;;;;;5027167;28;20120;-59
2023/07/18 08:16:20;;;;;;;2.78;0.80;;;23.00;65.80;;;;;;5015977;28;20046;-59
2023/07/18 08:18:46;;;;;;;3.30;0.90;;;23.00;65.80;;;;;;5014380;28;20041;-60
2023/07/18 08:21:11;;;;;;;1.58;0.70;;;23.00;65.80;;;;;;5014869;28;20519;-59
2023/07/18 08:23:37;;;;;;;3.38;0.77;;;23.00;65.80;;;;;;5013970;28;20177;-59
2023/07/18 08:26:02;;;;;;;3.20;1.08;;;23.10;65.90;;;;;;5014485;28;20068;-59
2023/07/18 08:28:28;;;;;;;3.08;0.80;;;23.10;65.90;;;;;;5014345;28;20033;-59
2023/07/18 08:30:54;;;;;;;2.33;0.90;;;23.10;65.80;;;;;;5018473;28;20497;-59
2023/07/18 08:33:21;;;;;;;2.50;0.80;;;23.10;66.00;;;;;;5033557;28;20037;-59
2023/07/18 08:35:48;;;;;;;2.20;0.90;;;23.10;65.90;;;;;;5032805;28;20128;-59
2023/07/18 08:38:14;;;;;;;3.23;0.70;;;23.10;65.90;;;;;;5031770;28;20041;-60
2023/07/18 08:40:46;;;;;;;3.80;1.00;;;23.10;65.90;;;;;;5033596;28;20304;-59
2023/07/18 08:43:14;;;;;;;2.90;0.68;;;23.10;65.90;;;;;;5034398;28;20041;-60
2023/07/18 08:45:40;;;;;;;3.80;0.90;;;23.10;65.90;;;;;;5031670;28;20129;-59
2023/07/18 08:48:05;;;;;;;3.25;0.77;;;23.10;65.90;;;;;;5016209;28;20125;-59
2023/07/18 08:50:31;;;;;;;2.13;0.90;;;23.20;66.00;;;;;;5032216;28;20050;-60
2023/07/18 08:52:57;;;;;;;4.18;0.98;;;23.10;65.90;;;;;;5015456;28;20401;-59
2023/07/18 08:55:23;;;;;;;5.05;1.00;;;23.20;66.00;;;;;;5033645;28;20916;-60
2023/07/18 08:57:50;;;;;;;1.95;0.70;;;23.20;66.00;;;;;;5031931;28;20053;-59
2023/07/18 09:00:20;;;;;;;2.65;1.00;;;23.10;65.90;;;;;;5031932;28;20052;-59
2023/07/18 09:02:48;;;;;;;2.83;0.93;;;23.20;66.00;;;;;;5024494;28;20072;-60
2023/07/18 09:05:34;;;;;;;2.83;1.00;;;23.20;65.90;;;;;;5030084;28;20061;-61
2023/07/18 09:08:00;;;;;;;3.25;1.10;;;23.20;65.80;;;;;;5022296;28;20053;-60
2023/07/18 09:10:26;;;;;;;5.13;1.00;;;23.20;65.80;;;;;;5013694;28;20440;-60
2023/07/18 09:12:52;;;;;;;5.63;1.20;;;23.20;65.70;;;;;;5013854;28;20507;-59
2023/07/18 09:15:21;;;;;;;4.22;0.90;;;23.20;65.60;;;;;;5023883;28;20045;-60
2023/07/18 09:17:56;;;;;;;3.45;0.90;;;23.20;65.50;;;;;;5020693;28;20037;-60
2023/07/18 09:20:27;;;;;;;5.28;1.13;;;23.20;65.40;;;;;;5027689;28;20480;-59
2023/07/18 09:23:09;;;;;;;6.15;1.10;;;23.30;65.40;;;;;;5022758;28;20041;-59
2023/07/18 09:25:39;;;;;;;5.05;0.82;;;23.30;65.60;;;;;;5015763;28;20049;-59
2023/07/18 09:28:08;;;;;;;4.30;1.00;;;23.30;65.70;;;;;;5021845;28;20060;-60
2023/07/18 09:30:34;;;;;;;4.72;1.13;;;23.30;65.70;;;;;;5015243;28;20042;-60
2023/07/18 09:33:02;;;;;;;2.90;1.02;;;23.30;65.70;;;;;;5020666;28;20057;-60
2023/07/18 09:35:28;;;;;;;4.03;0.90;;;23.30;65.70;;;;;;5016024;28;20053;-60
2023/07/18 09:37:54;;;;;;;5.72;1.15;;;23.30;65.70;;;;;;5012684;28;20042;-60
2023/07/18 09:40:31;;;;;;;8.07;1.00;;;23.30;65.70;;;;;;5011697;28;20060;-59
2023/07/18 09:42:57;;;;;;;6.18;1.00;;;23.30;65.60;;;;;;5012384;28;20088;-60
2023/07/18 09:45:23;;;;;;;8.07;1.27;;;23.30;65.30;;;;;;5012392;28;20050;-59
2023/07/18 09:47:49;;;;;;;8.55;1.35;;;23.30;64.70;;;;;;5021774;28;20078;-59
2023/07/18 09:50:14;;;;;;;4.63;0.90;;;23.30;64.20;;;;;;5011801;28;20078;-59
2023/07/18 09:52:49;;;;;;;5.43;1.13;;;23.30;63.60;;;;;;5012182;28;20050;-59
2023/07/18 09:55:16;;;;;;;3.88;0.82;;;23.30;62.60;;;;;;5012169;28;20077;-59
2023/07/18 09:57:42;;;;;;;3.30;0.90;;;23.20;61.70;;;;;;5010972;28;20065;-59
2023/07/18 10:00:11;;;;;;;6.05;0.98;;;23.20;60.70;;;;;;5032833;28;20041;-60
2023/07/18 10:02:39;;;;;;;1.95;0.60;;;23.20;60.20;;;;;;5030798;28;20088;-60
2023/07/18 10:05:05;;;;;;;2.42;0.82;;;23.20;59.70;;;;;;5031272;28;20041;-60
2023/07/18 10:07:32;;;;;;;2.53;0.90;;;23.20;59.60;;;;;;5030980;28;20056;-59
2023/07/18 10:09:58;;;;;;;7.47;0.95;;;23.10;58.10;;;;;;5030915;28;20049;-60
2023/07/18 10:12:24;;;;;;;5.22;0.90;;;23.10;57.30;;;;;;5032469;28;20046;-60
2023/07/18 10:14:58;;;;;;;4.45;0.68;;;23.00;56.70;;;;;;5032482;28;20041;-60
2023/07/18 10:17:36;;;;;;;2.90;0.77;;;23.00;56.80;;;;;;5030695;28;20052;-59
2023/07/18 10:20:34;;;;;;;3.30;0.70;;;23.00;55.50;;;;;;5031960;28;20080;-60
2023/07/18 10:23:00;;;;;;;3.35;0.90;;;23.00;55.60;;;;;;4997440;28;20504;-59
2023/07/18 10:25:53;;;;;;;3.78;0.93;;;23.00;55.90;;;;;;5031979;28;20061;-59
2023/07/18 10:28:18;;;;;;;3.85;0.82;;;23.00;55.20;;;;;;5030796;28;20041;-59
2023/07/18 10:30:45;;;;;;;2.40;0.90;;;23.00;55.40;;;;;;5030058;28;20046;-59
2023/07/18 10:33:10;;;;;;;4.03;0.80;;;22.90;55.30;;;;;;5031895;28;20077;-59
2023/07/18 10:35:41;;;;;;;4.53;0.98;;;23.00;55.30;;;;;;5032000;28;20110;-60
2023/07/18 10:38:06;;;;;;;2.70;0.75;;;23.00;55.20;;;;;;5030869;28;20132;-59
2023/07/18 10:40:33;;;;;;;3.65;0.68;;;23.00;55.30;;;;;;5031576;28;20268;-59
2023/07/18 10:42:59;;;;;;;5.35;0.80;;;23.00;55.30;;;;;;5026714;28;20046;-59
2023/07/18 10:45:24;;;;;;;1.13;0.50;;;23.10;55.30;;;;;;5024996;28;20074;-58
2023/07/18 10:47:50;;;;;;;3.25;0.60;;;23.00;54.70;;;;;;5031860;28;20077;-59
2023/07/18 10:50:15;;;;;;;3.28;0.68;;;23.00;54.50;;;;;;5035281;28;20469;-59
2023/07/18 10:52:41;;;;;;;4.25;1.00;;;23.00;54.30;;;;;;5034364;28;20124;-59
2023/07/18 10:55:07;;;;;;;5.22;0.80;;;23.00;53.60;;;;;;5035640;28;20049;-59
2023/07/18 10:57:34;;;;;;;1.70;0.90;;;23.00;53.40;;;;;;5032807;28;20049;-59
2023/07/18 11:00:00;;;;;;;5.32;0.85;;;23.00;53.30;;;;;;5035726;28;20401;-59
2023/07/18 11:02:26;;;;;;;2.55;0.80;;;23.00;53.20;;;;;;5034551;28;20176;-59
2023/07/18 11:04:53;;;;;;;3.83;0.75;;;23.00;53.30;;;;;;5033076;28;20511;-60
2023/07/18 11:07:39;;;;;;;4.95;0.95;;;23.00;53.30;;;;;;5032725;28;20053;-60
2023/07/18 11:10:06;;;;;;;2.92;0.90;;;23.00;52.90;;;;;;5015943;28;20049;-60
2023/07/18 11:12:31;;;;;;;2.08;0.50;;;22.90;52.60;;;;;;5021386;28;20485;-60
2023/07/18 11:14:57;;;;;;;2.60;0.70;;;23.00;52.60;;;;;;5013360;28;20136;-61
2023/07/18 11:17:23;;;;;;;3.22;0.88;;;23.00;52.60;;;;;;5022834;28;20037;-59
2023/07/18 11:19:48;;;;;;;4.30;0.60;;;23.00;52.90;;;;;;5033770;28;20172;-59
2023/07/18 11:22:14;;;;;;;2.47;0.80;;;22.90;53.50;;;;;;5035151;28;20072;-59
2023/07/18 11:24:43;;;;;;;2.08;0.60;;;23.00;52.90;;;;;;5035393;28;20053;-60
2023/07/18 11:27:17;;;;;;;3.58;0.70;;;23.00;52.80;;;;;;5033864;28;20060;-59
2023/07/18 11:29:56;;;;;;;4.03;0.70;;;23.00;52.50;;;;;;5033684;28;20409;-60
2023/07/18 11:32:36;;;;;;;2.83;0.60;;;23.00;52.50;;;;;;5034629;28;20471;-60
2023/07/18 11:35:02;;;;;;;3.78;0.70;;;23.00;52.40;;;;;;5035584;28;20045;-59
2023/07/18 11:37:27;;;;;;;2.53;0.50;;;23.00;52.60;;;;;;5035148;28;20107;-60
2023/07/18 11:39:57;;;;;;;3.03;0.70;;;23.00;52.60;;;;;;5034024;28;20087;-60
2023/07/18 11:42:25;;;;;;;2.90;0.77;;;23.00;52.80;;;;;;5033271;28;20042;-60
2023/07/18 11:44:52;;;;;;;3.25;0.70;;;23.00;53.00;;;;;;5034275;28;20150;-60
2023/07/18 11:47:18;;;;;;;3.00;0.90;;;23.10;53.10;;;;;;5033321;28;20401;-61
2023/07/18 11:49:44;;;;;;;2.70;0.70;;;23.10;53.30;;;;;;5034385;28;20049;-61
2023/07/18 11:52:10;;;;;;;3.67;0.60;;;23.10;53.50;;;;;;5033841;28;20037;-61
2023/07/18 11:54:36;;;;;;;2.60;0.73;;;23.10;53.60;;;;;;5033617;28;20063;-61
2023/07/18 11:57:05;;;;;;;2.25;0.77;;;23.20;53.80;;;;;;5034073;28;20041;-61
2023/07/18 11:59:31;;;;;;;2.28;0.60;;;23.20;54.00;;;;;;5033432;28;20086;-61
2023/07/18 12:01:56;;;;;;;3.35;0.80;;;23.20;54.10;;;;;;5033533;28;20051;-61
2023/07/18 12:04:22;;;;;;;5.57;1.15;;;23.20;55.00;;;;;;5034882;28;20128;-61
2023/07/18 12:06:47;;;;;;;2.67;0.50;;;23.20;54.40;;;;;;5033704;28;20061;-61
2023/07/18 12:09:14;;;;;;;1.63;0.60;;;23.20;54.50;;;;;;5033448;28;20493;-61
2023/07/18 12:11:39;;;;;;;2.80;0.70;;;23.20;54.60;;;;;;5032364;28;20052;-61
2023/07/18 12:14:06;;;;;;;4.43;0.80;;;23.20;54.70;;;;;;5025104;28;20041;-61
2023/07/18 12:16:32;;;;;;;3.40;0.70;;;23.30;54.90;;;;;;5033447;28;20634;-61
2023/07/18 12:18:58;;;;;;;2.75;0.73;;;23.30;55.00;;;;;;5016482;28;20042;-61
2023/07/18 12:21:23;;;;;;;2.13;0.60;;;23.30;55.10;;;;;;5014820;28;20046;-61
2023/07/18 12:23:49;;;;;;;2.67;0.73;;;23.30;55.20;;;;;;5013215;28;20041;-60
2023/07/18 12:26:14;;;;;;;2.25;0.60;;;23.30;55.40;;;;;;5014075;28;20482;-61
2023/07/18 12:28:40;;;;;;;2.08;0.60;;;23.30;55.40;;;;;;5028271;28;20048;-61
2023/07/18 12:31:07;;;;;;;3.83;0.70;;;23.30;55.40;;;;;;5034622;28;20087;-60
2023/07/18 12:33:33;;;;;;;2.88;0.50;;;23.30;55.60;;;;;;5034232;28;20069;-61
2023/07/18 12:35:59;;;;;;;2.60;0.75;;;23.30;55.80;;;;;;5032699;28;20159;-61
2023/07/18 12:38:24;;;;;;;3.55;0.80;;;23.30;55.80;;;;;;5033680;28;20433;-61
2023/07/18 12:40:50;;;;;;;3.78;0.70;;;23.30;56.60;;;;;;5032665;28;20081;-60
2023/07/18 12:43:16;;;;;;;4.00;0.80;;;23.30;55.80;;;;;;5032852;28;20061;-60
2023/07/18 12:45:41;;;;;;;3.78;0.63;;;23.30;55.90;;;;;;5033277;28;20473;-60